sensor_id;sensor_type;location;lat;lon;timestamp;P1;durP1;ratioP1;P2;durP2;ratioP2
70927;SDS011;58587;53.034;18.576;2023-04-24T06:12:00;11.57;;;7.72;;
70927;SDS011;58587;53.034;18.576;2023-04-24T06:14:26;13.17;;;8.90;;
70927;SDS011;58587;53.034;18.576;2023-04-24T06:16:51;11.93;;;8.10;;
70927;SDS011;58587;53.034;18.576;2023-04-24T06:19:16;16.37;;;8.13;;
70927;SDS011;58587;53.034;18.576;2023-04-24T06:21:41;13.73;;;8.20;;
70927;SDS011;58587;53.034;18.576;2023-04-24T06:24:07;13.63;;;8.20;;
70927;SDS011;58587;53.034;18.576;2023-04-24T06:26:32;13.30;;;8.53;;
70927;SDS011;58587;53.034;18.576;2023-04-24T06:28:58;14.23;;;7.90;;
70927;SDS011;58587;53.034;18.576;2023-04-24T06:31:24;13.20;;;7.85;;
70927;SDS011;58587;53.034;18.576;2023-04-24T06:33:49;13.37;;;7.93;;
70927;SDS011;58587;53.034;18.576;2023-04-24T06:36:15;10.63;;;7.60;;
70927;SDS011;58587;53.034;18.576;2023-04-24T06:38:40;11.02;;;7.68;;
70927;SDS011;58587;53.034;18.576;2023-04-24T06:41:06;12.90;;;8.10;;
70927;SDS011;58587;53.034;18.576;2023-04-24T06:43:31;12.20;;;7.87;;
70927;SDS011;58587;53.034;18.576;2023-04-24T06:45:57;13.38;;;7.28;;
70927;SDS011;58587;53.034;18.576;2023-04-24T06:48:23;9.70;;;7.03;;
70927;SDS011;58587;53.034;18.576;2023-04-24T06:50:49;10.45;;;7.10;;
70927;SDS011;58587;53.034;18.576;2023-04-24T06:53:14;12.67;;;6.83;;
70927;SDS011;58587;53.034;18.576;2023-04-24T06:55:40;7.97;;;6.20;;
70927;SDS011;58587;53.034;18.576;2023-04-24T06:58:05;9.90;;;6.57;;
70927;SDS011;58587;53.034;18.576;2023-04-24T07:00:31;9.10;;;6.47;;
70927;SDS011;58587;53.034;18.576;2023-04-24T07:02:56;10.50;;;6.63;;
70927;SDS011;58587;53.034;18.576;2023-04-24T07:05:22;10.37;;;6.37;;
70927;SDS011;58587;53.034;18.576;2023-04-24T07:07:48;9.32;;;6.50;;
70927;SDS011;58587;53.034;18.576;2023-04-24T07:10:15;10.07;;;5.80;;
70927;SDS011;58587;53.034;18.576;2023-04-24T07:12:41;8.80;;;6.33;;
70927;SDS011;58587;53.034;18.576;2023-04-24T07:15:06;12.80;;;6.90;;
70927;SDS011;58587;53.034;18.576;2023-04-24T07:17:33;9.93;;;6.88;;
70927;SDS011;58587;53.034;18.576;2023-04-24T07:19:59;10.55;;;6.72;;
70927;SDS011;58587;53.034;18.576;2023-04-24T07:22:25;9.43;;;5.63;;
70927;SDS011;58587;53.034;18.576;2023-04-24T07:24:50;9.35;;;5.70;;
70927;SDS011;58587;53.034;18.576;2023-04-24T07:27:16;7.87;;;6.10;;
70927;SDS011;58587;53.034;18.576;2023-04-24T07:29:41;8.17;;;5.43;;
70927;SDS011;58587;53.034;18.576;2023-04-24T07:32:06;8.27;;;5.90;;
70927;SDS011;58587;53.034;18.576;2023-04-24T07:34:32;11.57;;;5.60;;
70927;SDS011;58587;53.034;18.576;2023-04-24T07:36:58;8.10;;;5.33;;
70927;SDS011;58587;53.034;18.576;2023-04-24T07:39:23;6.50;;;5.33;;
70927;SDS011;58587;53.034;18.576;2023-04-24T07:41:49;8.52;;;5.18;;
70927;SDS011;58587;53.034;18.576;2023-04-24T07:44:14;6.90;;;4.60;;
70927;SDS011;58587;53.034;18.576;2023-04-24T07:46:40;7.43;;;4.80;;
70927;SDS011;58587;53.034;18.576;2023-04-24T07:49:05;6.10;;;4.90;;
70927;SDS011;58587;53.034;18.576;2023-04-24T07:51:31;6.47;;;4.77;;
70927;SDS011;58587;53.034;18.576;2023-04-24T07:53:58;6.80;;;4.55;;
70927;SDS011;58587;53.034;18.576;2023-04-24T07:56:23;7.03;;;5.10;;
70927;SDS011;58587;53.034;18.576;2023-04-24T07:58:49;5.27;;;4.30;;
70927;SDS011;58587;53.034;18.576;2023-04-24T08:01:14;8.60;;;4.40;;
70927;SDS011;58587;53.034;18.576;2023-04-24T08:03:40;6.90;;;4.30;;
70927;SDS011;58587;53.034;18.576;2023-04-24T08:06:05;5.30;;;4.20;;
70927;SDS011;58587;53.034;18.576;2023-04-24T08:08:31;6.13;;;4.53;;
70927;SDS011;58587;53.034;18.576;2023-04-24T08:10:57;5.43;;;4.03;;
70927;SDS011;58587;53.034;18.576;2023-04-24T08:13:22;6.37;;;4.37;;
70927;SDS011;58587;53.034;18.576;2023-04-24T08:15:48;6.63;;;4.43;;
70927;SDS011;58587;53.034;18.576;2023-04-24T08:18:13;5.73;;;4.40;;
70927;SDS011;58587;53.034;18.576;2023-04-24T08:20:40;6.15;;;4.50;;
70927;SDS011;58587;53.034;18.576;2023-04-24T08:23:06;6.17;;;4.77;;
70927;SDS011;58587;53.034;18.576;2023-04-24T08:25:31;6.07;;;4.80;;
70927;SDS011;58587;53.034;18.576;2023-04-24T08:27:57;5.57;;;4.40;;
70927;SDS011;58587;53.034;18.576;2023-04-24T08:30:22;6.37;;;4.37;;
70927;SDS011;58587;53.034;18.576;2023-04-24T08:32:48;5.18;;;4.45;;
70927;SDS011;58587;53.034;18.576;2023-04-24T08:35:13;8.00;;;4.70;;
70927;SDS011;58587;53.034;18.576;2023-04-24T08:37:39;6.87;;;4.17;;
70927;SDS011;58587;53.034;18.576;2023-04-24T08:40:05;6.07;;;4.55;;
70927;SDS011;58587;53.034;18.576;2023-04-24T08:42:36;5.20;;;4.17;;
70927;SDS011;58587;53.034;18.576;2023-04-24T08:45:02;4.30;;;3.83;;
70927;SDS011;58587;53.034;18.576;2023-04-24T08:47:27;5.53;;;3.40;;
70927;SDS011;58587;53.034;18.576;2023-04-24T08:49:53;3.22;;;2.92;;
70927;SDS011;58587;53.034;18.576;2023-04-24T08:52:19;4.77;;;3.20;;
70927;SDS011;58587;53.034;18.576;2023-04-24T08:54:46;4.47;;;3.20;;
70927;SDS011;58587;53.034;18.576;2023-04-24T08:57:13;5.88;;;3.25;;
70927;SDS011;58587;53.034;18.576;2023-04-24T08:59:39;5.65;;;3.67;;
70927;SDS011;58587;53.034;18.576;2023-04-24T09:02:05;8.57;;;4.13;;
70927;SDS011;58587;53.034;18.576;2023-04-24T09:04:34;8.23;;;3.93;;
70927;SDS011;58587;53.034;18.576;2023-04-24T09:07:00;4.07;;;3.10;;
70927;SDS011;58587;53.034;18.576;2023-04-24T09:09:26;5.67;;;3.40;;
70927;SDS011;58587;53.034;18.576;2023-04-24T09:11:55;3.60;;;3.00;;
70927;SDS011;58587;53.034;18.576;2023-04-24T09:14:22;4.07;;;3.25;;
70927;SDS011;58587;53.034;18.576;2023-04-24T09:16:48;4.22;;;3.25;;
70927;SDS011;58587;53.034;18.576;2023-04-24T09:19:14;7.25;;;3.15;;
70927;SDS011;58587;53.034;18.576;2023-04-24T09:21:40;4.60;;;3.03;;
70927;SDS011;58587;53.034;18.576;2023-04-24T09:24:07;4.75;;;3.60;;
70927;SDS011;58587;53.034;18.576;2023-04-24T09:26:42;5.38;;;3.28;;
70927;SDS011;58587;53.034;18.576;2023-04-24T09:29:08;4.63;;;3.40;;
70927;SDS011;58587;53.034;18.576;2023-04-24T09:31:41;5.30;;;3.80;;
70927;SDS011;58587;53.034;18.576;2023-04-24T09:34:07;5.00;;;3.63;;
70927;SDS011;58587;53.034;18.576;2023-04-24T09:36:33;5.55;;;3.72;;
70927;SDS011;58587;53.034;18.576;2023-04-24T09:39:07;6.03;;;4.17;;
70927;SDS011;58587;53.034;18.576;2023-04-24T09:41:43;6.90;;;4.72;;
70927;SDS011;58587;53.034;18.576;2023-04-24T09:44:12;6.10;;;4.30;;
70927;SDS011;58587;53.034;18.576;2023-04-24T09:46:37;9.00;;;4.47;;
70927;SDS011;58587;53.034;18.576;2023-04-24T09:49:10;7.77;;;4.63;;
70927;SDS011;58587;53.034;18.576;2023-04-24T09:51:38;8.07;;;4.30;;
70927;SDS011;58587;53.034;18.576;2023-04-24T09:54:05;7.37;;;4.63;;
70927;SDS011;58587;53.034;18.576;2023-04-24T09:56:41;8.75;;;4.80;;
70927;SDS011;58587;53.034;18.576;2023-04-24T09:59:08;9.30;;;4.88;;
70927;SDS011;58587;53.034;18.576;2023-04-24T10:01:34;5.80;;;4.63;;
70927;SDS011;58587;53.034;18.576;2023-04-24T10:03:59;5.85;;;4.65;;
70927;SDS011;58587;53.034;18.576;2023-04-24T10:06:32;7.97;;;5.03;;
70927;SDS011;58587;53.034;18.576;2023-04-24T10:08:59;6.35;;;4.90;;
70927;SDS011;58587;53.034;18.576;2023-04-24T10:11:26;7.03;;;5.00;;
70927;SDS011;58587;53.034;18.576;2023-04-24T10:13:52;6.78;;;4.78;;
70927;SDS011;58587;53.034;18.576;2023-04-24T10:16:18;7.63;;;5.10;;
70927;SDS011;58587;53.034;18.576;2023-04-24T10:18:46;5.30;;;4.60;;
70927;SDS011;58587;53.034;18.576;2023-04-24T10:21:13;8.82;;;4.50;;
70927;SDS011;58587;53.034;18.576;2023-04-24T10:23:39;5.13;;;4.13;;
70927;SDS011;58587;53.034;18.576;2023-04-24T10:26:07;8.48;;;5.03;;
70927;SDS011;58587;53.034;18.576;2023-04-24T10:28:42;6.57;;;4.43;;
70927;SDS011;58587;53.034;18.576;2023-04-24T10:31:10;8.70;;;4.85;;
70927;SDS011;58587;53.034;18.576;2023-04-24T10:33:36;7.50;;;4.45;;
70927;SDS011;58587;53.034;18.576;2023-04-24T10:36:03;8.77;;;5.40;;
70927;SDS011;58587;53.034;18.576;2023-04-24T10:38:29;9.90;;;5.15;;
70927;SDS011;58587;53.034;18.576;2023-04-24T10:41:08;6.60;;;5.03;;
70927;SDS011;58587;53.034;18.576;2023-04-24T10:43:35;8.10;;;5.35;;
70927;SDS011;58587;53.034;18.576;2023-04-24T10:46:01;9.57;;;5.40;;
70927;SDS011;58587;53.034;18.576;2023-04-24T10:48:28;7.33;;;5.27;;
70927;SDS011;58587;53.034;18.576;2023-04-24T10:50:54;8.82;;;5.35;;
70927;SDS011;58587;53.034;18.576;2023-04-24T10:53:21;7.23;;;5.37;;
70927;SDS011;58587;53.034;18.576;2023-04-24T10:58:38;8.30;;;5.85;;
70927;SDS011;58587;53.034;18.576;2023-04-24T11:03:50;7.35;;;5.55;;
70927;SDS011;58587;53.034;18.576;2023-04-24T11:06:20;6.87;;;5.40;;
70927;SDS011;58587;53.034;18.576;2023-04-24T11:08:57;8.82;;;5.65;;
70927;SDS011;58587;53.034;18.576;2023-04-24T11:11:28;10.07;;;6.60;;
70927;SDS011;58587;53.034;18.576;2023-04-24T11:18:45;8.00;;;5.50;;
70927;SDS011;58587;53.034;18.576;2023-04-24T11:21:16;9.00;;;5.37;;
70927;SDS011;58587;53.034;18.576;2023-04-24T11:23:42;9.77;;;5.90;;
70927;SDS011;58587;53.034;18.576;2023-04-24T11:26:11;7.38;;;5.18;;
70927;SDS011;58587;53.034;18.576;2023-04-24T11:28:45;8.15;;;5.57;;
70927;SDS011;58587;53.034;18.576;2023-04-24T11:34:08;13.10;;;5.95;;
70927;SDS011;58587;53.034;18.576;2023-04-24T11:36:35;7.00;;;5.07;;
70927;SDS011;58587;53.034;18.576;2023-04-24T11:39:00;8.02;;;5.60;;
70927;SDS011;58587;53.034;18.576;2023-04-24T11:41:26;7.30;;;5.13;;
70927;SDS011;58587;53.034;18.576;2023-04-24T11:43:52;8.45;;;5.50;;
70927;SDS011;58587;53.034;18.576;2023-04-24T11:46:20;6.72;;;5.18;;
70927;SDS011;58587;53.034;18.576;2023-04-24T11:48:46;7.70;;;5.20;;
70927;SDS011;58587;53.034;18.576;2023-04-24T11:51:12;10.40;;;5.83;;
70927;SDS011;58587;53.034;18.576;2023-04-24T11:53:38;7.93;;;5.55;;
70927;SDS011;58587;53.034;18.576;2023-04-24T11:56:03;6.30;;;5.40;;
70927;SDS011;58587;53.034;18.576;2023-04-24T11:58:34;6.75;;;5.43;;
70927;SDS011;58587;53.034;18.576;2023-04-24T12:01:09;6.97;;;5.50;;
70927;SDS011;58587;53.034;18.576;2023-04-24T12:03:35;8.80;;;5.30;;
70927;SDS011;58587;53.034;18.576;2023-04-24T12:06:06;6.63;;;4.97;;
70927;SDS011;58587;53.034;18.576;2023-04-24T12:08:33;6.30;;;5.28;;
70927;SDS011;58587;53.034;18.576;2023-04-24T12:11:02;5.93;;;5.00;;
70927;SDS011;58587;53.034;18.576;2023-04-24T12:13:29;8.00;;;5.13;;
70927;SDS011;58587;53.034;18.576;2023-04-24T12:15:58;7.47;;;5.13;;
70927;SDS011;58587;53.034;18.576;2023-04-24T12:18:24;6.18;;;5.20;;
70927;SDS011;58587;53.034;18.576;2023-04-24T12:20:50;6.82;;;5.25;;
70927;SDS011;58587;53.034;18.576;2023-04-24T12:23:16;6.63;;;5.87;;
70927;SDS011;58587;53.034;18.576;2023-04-24T12:25:42;6.03;;;5.17;;
70927;SDS011;58587;53.034;18.576;2023-04-24T12:28:09;7.00;;;5.60;;
70927;SDS011;58587;53.034;18.576;2023-04-24T12:30:47;8.75;;;6.15;;
70927;SDS011;58587;53.034;18.576;2023-04-24T12:33:19;8.10;;;6.27;;
70927;SDS011;58587;53.034;18.576;2023-04-24T12:35:45;8.52;;;6.10;;
70927;SDS011;58587;53.034;18.576;2023-04-24T12:38:12;13.95;;;9.70;;
70927;SDS011;58587;53.034;18.576;2023-04-24T12:40:38;10.10;;;6.80;;
70927;SDS011;58587;53.034;18.576;2023-04-24T12:43:17;8.82;;;6.72;;
70927;SDS011;58587;53.034;18.576;2023-04-24T12:45:44;7.88;;;6.18;;
70927;SDS011;58587;53.034;18.576;2023-04-24T12:48:10;10.07;;;6.38;;
70927;SDS011;58587;53.034;18.576;2023-04-24T12:50:36;11.30;;;7.27;;
70927;SDS011;58587;53.034;18.576;2023-04-24T12:53:02;7.90;;;6.40;;
70927;SDS011;58587;53.034;18.576;2023-04-24T12:55:28;9.10;;;7.07;;
70927;SDS011;58587;53.034;18.576;2023-04-24T12:57:53;9.80;;;7.17;;
70927;SDS011;58587;53.034;18.576;2023-04-24T13:00:20;10.13;;;7.68;;
70927;SDS011;58587;53.034;18.576;2023-04-24T13:02:45;8.17;;;6.80;;
70927;SDS011;58587;53.034;18.576;2023-04-24T13:05:11;13.70;;;8.40;;
70927;SDS011;58587;53.034;18.576;2023-04-24T13:07:38;8.90;;;7.17;;
70927;SDS011;58587;53.034;18.576;2023-04-24T13:10:04;9.93;;;7.35;;
70927;SDS011;58587;53.034;18.576;2023-04-24T13:12:30;13.83;;;7.63;;
70927;SDS011;58587;53.034;18.576;2023-04-24T13:14:55;7.68;;;6.70;;
70927;SDS011;58587;53.034;18.576;2023-04-24T13:17:21;8.83;;;7.10;;
70927;SDS011;58587;53.034;18.576;2023-04-24T13:19:48;8.03;;;6.63;;
70927;SDS011;58587;53.034;18.576;2023-04-24T13:22:16;8.38;;;6.55;;
70927;SDS011;58587;53.034;18.576;2023-04-24T13:24:43;7.45;;;6.38;;
70927;SDS011;58587;53.034;18.576;2023-04-24T13:27:09;9.32;;;6.60;;
70927;SDS011;58587;53.034;18.576;2023-04-24T13:29:35;7.93;;;6.80;;
70927;SDS011;58587;53.034;18.576;2023-04-24T13:32:00;9.35;;;7.45;;
70927;SDS011;58587;53.034;18.576;2023-04-24T13:34:26;9.70;;;7.30;;
70927;SDS011;58587;53.034;18.576;2023-04-24T13:36:53;10.98;;;7.10;;
70927;SDS011;58587;53.034;18.576;2023-04-24T13:39:20;11.73;;;8.00;;
70927;SDS011;58587;53.034;18.576;2023-04-24T13:41:46;10.00;;;7.10;;
70927;SDS011;58587;53.034;18.576;2023-04-24T13:44:13;11.35;;;6.80;;
70927;SDS011;58587;53.034;18.576;2023-04-24T13:46:39;7.90;;;6.43;;
70927;SDS011;58587;53.034;18.576;2023-04-24T13:49:04;10.33;;;6.60;;
70927;SDS011;58587;53.034;18.576;2023-04-24T13:51:30;8.47;;;6.80;;
70927;SDS011;58587;53.034;18.576;2023-04-24T13:53:55;6.95;;;6.25;;
70927;SDS011;58587;53.034;18.576;2023-04-24T13:56:21;8.60;;;6.07;;
70927;SDS011;58587;53.034;18.576;2023-04-24T13:58:47;8.52;;;7.28;;
70927;SDS011;58587;53.034;18.576;2023-04-24T14:01:13;9.57;;;7.13;;
70927;SDS011;58587;53.034;18.576;2023-04-24T14:03:39;8.20;;;6.38;;
70927;SDS011;58587;53.034;18.576;2023-04-24T14:06:05;9.20;;;7.40;;
70927;SDS011;58587;53.034;18.576;2023-04-24T14:08:31;7.65;;;6.05;;
70927;SDS011;58587;53.034;18.576;2023-04-24T14:10:56;9.57;;;5.60;;
70927;SDS011;58587;53.034;18.576;2023-04-24T14:13:22;6.73;;;5.43;;
70927;SDS011;58587;53.034;18.576;2023-04-24T14:15:47;6.43;;;5.65;;
70927;SDS011;58587;53.034;18.576;2023-04-24T14:18:12;8.63;;;5.97;;
70927;SDS011;58587;53.034;18.576;2023-04-24T14:20:38;9.03;;;5.87;;
70927;SDS011;58587;53.034;18.576;2023-04-24T14:23:03;9.53;;;5.07;;
70927;SDS011;58587;53.034;18.576;2023-04-24T14:25:29;6.38;;;5.00;;
70927;SDS011;58587;53.034;18.576;2023-04-24T14:27:55;7.57;;;6.30;;
70927;SDS011;58587;53.034;18.576;2023-04-24T14:30:20;7.20;;;4.87;;
70927;SDS011;58587;53.034;18.576;2023-04-24T14:32:46;8.52;;;6.70;;
70927;SDS011;58587;53.034;18.576;2023-04-24T14:35:11;7.13;;;5.40;;
70927;SDS011;58587;53.034;18.576;2023-04-24T14:37:37;8.98;;;5.53;;
70927;SDS011;58587;53.034;18.576;2023-04-24T14:40:03;8.47;;;5.67;;
70927;SDS011;58587;53.034;18.576;2023-04-24T14:42:31;7.65;;;6.32;;
70927;SDS011;58587;53.034;18.576;2023-04-24T14:44:56;8.17;;;5.70;;
70927;SDS011;58587;53.034;18.576;2023-04-24T14:47:22;9.27;;;6.50;;
70927;SDS011;58587;53.034;18.576;2023-04-24T14:49:47;15.30;;;6.70;;
70927;SDS011;58587;53.034;18.576;2023-04-24T14:52:13;7.78;;;6.28;;
70927;SDS011;58587;53.034;18.576;2023-04-24T14:54:38;7.83;;;6.00;;
70927;SDS011;58587;53.034;18.576;2023-04-24T14:57:04;9.33;;;6.80;;
70927;SDS011;58587;53.034;18.576;2023-04-24T14:59:29;7.93;;;6.38;;
70927;SDS011;58587;53.034;18.576;2023-04-24T15:01:56;10.10;;;6.80;;
70927;SDS011;58587;53.034;18.576;2023-04-24T15:04:26;10.07;;;6.57;;
70927;SDS011;58587;53.034;18.576;2023-04-24T15:06:52;8.20;;;6.72;;
70927;SDS011;58587;53.034;18.576;2023-04-24T15:09:21;9.70;;;6.72;;
70927;SDS011;58587;53.034;18.576;2023-04-24T15:11:48;7.68;;;6.88;;
70927;SDS011;58587;53.034;18.576;2023-04-24T15:14:14;9.30;;;7.40;;
70927;SDS011;58587;53.034;18.576;2023-04-24T15:16:40;7.97;;;6.28;;
70927;SDS011;58587;53.034;18.576;2023-04-24T15:19:05;7.50;;;6.30;;
70927;SDS011;58587;53.034;18.576;2023-04-24T15:21:30;6.90;;;6.20;;
70927;SDS011;58587;53.034;18.576;2023-04-24T15:23:56;9.17;;;5.93;;
70927;SDS011;58587;53.034;18.576;2023-04-24T15:26:22;6.90;;;5.17;;
70927;SDS011;58587;53.034;18.576;2023-04-24T15:28:48;6.40;;;5.55;;
70927;SDS011;58587;53.034;18.576;2023-04-24T15:31:13;8.67;;;6.20;;
70927;SDS011;58587;53.034;18.576;2023-04-24T15:33:39;6.57;;;5.70;;
70927;SDS011;58587;53.034;18.576;2023-04-24T15:36:04;8.60;;;6.00;;
70927;SDS011;58587;53.034;18.576;2023-04-24T15:38:30;7.27;;;5.53;;
70927;SDS011;58587;53.034;18.576;2023-04-24T15:40:55;7.68;;;5.70;;
70927;SDS011;58587;53.034;18.576;2023-04-24T15:43:21;9.60;;;6.10;;
70927;SDS011;58587;53.034;18.576;2023-04-24T15:45:47;6.28;;;5.68;;
70927;SDS011;58587;53.034;18.576;2023-04-24T15:48:14;8.45;;;5.97;;
70927;SDS011;58587;53.034;18.576;2023-04-24T15:50:40;7.17;;;5.40;;
70927;SDS011;58587;53.034;18.576;2023-04-24T15:53:05;8.23;;;5.80;;
70927;SDS011;58587;53.034;18.576;2023-04-24T15:55:30;9.67;;;5.83;;
70927;SDS011;58587;53.034;18.576;2023-04-24T15:57:57;9.20;;;6.45;;
70927;SDS011;58587;53.034;18.576;2023-04-24T16:00:22;7.13;;;5.70;;
70927;SDS011;58587;53.034;18.576;2023-04-24T16:02:48;8.90;;;6.40;;
70927;SDS011;58587;53.034;18.576;2023-04-24T16:05:15;8.23;;;5.95;;
70927;SDS011;58587;53.034;18.576;2023-04-24T16:07:41;7.50;;;5.95;;
70927;SDS011;58587;53.034;18.576;2023-04-24T16:10:06;10.87;;;6.03;;
70927;SDS011;58587;53.034;18.576;2023-04-24T16:12:32;9.37;;;5.10;;
70927;SDS011;58587;53.034;18.576;2023-04-24T16:14:57;5.70;;;5.10;;
70927;SDS011;58587;53.034;18.576;2023-04-24T16:17:23;6.63;;;5.10;;
70927;SDS011;58587;53.034;18.576;2023-04-24T16:19:48;6.90;;;5.20;;
70927;SDS011;58587;53.034;18.576;2023-04-24T16:22:13;5.50;;;4.53;;
70927;SDS011;58587;53.034;18.576;2023-04-24T16:24:39;5.43;;;4.80;;
70927;SDS011;58587;53.034;18.576;2023-04-24T16:27:04;6.57;;;4.55;;
70927;SDS011;58587;53.034;18.576;2023-04-24T16:29:30;7.83;;;3.90;;
70927;SDS011;58587;53.034;18.576;2023-04-24T16:31:55;4.73;;;4.23;;
70927;SDS011;58587;53.034;18.576;2023-04-24T16:34:21;6.60;;;4.20;;
70927;SDS011;58587;53.034;18.576;2023-04-24T16:36:46;5.20;;;4.03;;
70927;SDS011;58587;53.034;18.576;2023-04-24T16:39:11;6.10;;;3.90;;
70927;SDS011;58587;53.034;18.576;2023-04-24T16:41:37;5.90;;;3.73;;
70927;SDS011;58587;53.034;18.576;2023-04-24T16:44:03;4.97;;;3.60;;
70927;SDS011;58587;53.034;18.576;2023-04-24T16:46:29;4.30;;;3.60;;
70927;SDS011;58587;53.034;18.576;2023-04-24T16:48:54;7.13;;;5.67;;
70927;SDS011;58587;53.034;18.576;2023-04-24T16:51:19;5.80;;;4.23;;
70927;SDS011;58587;53.034;18.576;2023-04-24T16:53:45;4.33;;;3.57;;
70927;SDS011;58587;53.034;18.576;2023-04-24T16:56:10;4.77;;;4.17;;
70927;SDS011;58587;53.034;18.576;2023-04-24T16:58:36;9.35;;;5.68;;
70927;SDS011;58587;53.034;18.576;2023-04-24T17:01:01;5.00;;;4.07;;
70927;SDS011;58587;53.034;18.576;2023-04-24T17:03:27;6.30;;;3.80;;
70927;SDS011;58587;53.034;18.576;2023-04-24T17:05:52;4.70;;;3.73;;
70927;SDS011;58587;53.034;18.576;2023-04-24T17:08:17;3.10;;;2.72;;
70927;SDS011;58587;53.034;18.576;2023-04-24T17:10:43;4.27;;;3.03;;
70927;SDS011;58587;53.034;18.576;2023-04-24T17:13:08;3.40;;;2.60;;
70927;SDS011;58587;53.034;18.576;2023-04-24T17:15:34;5.77;;;4.30;;
70927;SDS011;58587;53.034;18.576;2023-04-24T17:17:59;4.93;;;4.38;;
70927;SDS011;58587;53.034;18.576;2023-04-24T17:20:26;4.63;;;2.95;;
70927;SDS011;58587;53.034;18.576;2023-04-24T17:22:51;4.20;;;2.60;;
70927;SDS011;58587;53.034;18.576;2023-04-24T17:25:17;10.23;;;4.30;;
70927;SDS011;58587;53.034;18.576;2023-04-24T17:27:43;6.23;;;4.40;;
70927;SDS011;58587;53.034;18.576;2023-04-24T17:30:08;5.85;;;4.30;;
70927;SDS011;58587;53.034;18.576;2023-04-24T17:32:34;4.97;;;4.30;;
70927;SDS011;58587;53.034;18.576;2023-04-24T17:34:59;6.87;;;3.60;;
70927;SDS011;58587;53.034;18.576;2023-04-24T17:37:26;3.80;;;2.70;;
70927;SDS011;58587;53.034;18.576;2023-04-24T17:39:51;3.47;;;2.70;;
70927;SDS011;58587;53.034;18.576;2023-04-24T17:42:16;4.93;;;3.13;;
70927;SDS011;58587;53.034;18.576;2023-04-24T17:44:42;4.23;;;2.90;;
70927;SDS011;58587;53.034;18.576;2023-04-24T17:47:07;5.67;;;4.60;;
70927;SDS011;58587;53.034;18.576;2023-04-24T17:49:32;6.17;;;5.17;;
70927;SDS011;58587;53.034;18.576;2023-04-24T17:51:58;4.63;;;3.60;;
70927;SDS011;58587;53.034;18.576;2023-04-24T17:54:23;5.73;;;3.70;;
70927;SDS011;58587;53.034;18.576;2023-04-24T17:56:48;5.70;;;3.20;;
70927;SDS011;58587;53.034;18.576;2023-04-24T17:59:14;7.47;;;4.80;;
70927;SDS011;58587;53.034;18.576;2023-04-24T18:01:40;4.20;;;3.50;;
70927;SDS011;58587;53.034;18.576;2023-04-24T18:04:06;8.60;;;5.20;;
70927;SDS011;58587;53.034;18.576;2023-04-24T18:06:31;9.68;;;5.43;;
70927;SDS011;58587;53.034;18.576;2023-04-24T18:08:56;6.50;;;3.80;;
70927;SDS011;58587;53.034;18.576;2023-04-24T18:11:22;6.23;;;3.73;;
70927;SDS011;58587;53.034;18.576;2023-04-24T18:13:48;4.75;;;3.40;;
70927;SDS011;58587;53.034;18.576;2023-04-24T18:16:13;3.73;;;3.20;;
70927;SDS011;58587;53.034;18.576;2023-04-24T18:18:38;4.37;;;3.33;;
70927;SDS011;58587;53.034;18.576;2023-04-24T18:21:04;8.30;;;4.83;;
70927;SDS011;58587;53.034;18.576;2023-04-24T18:23:29;8.80;;;5.57;;
70927;SDS011;58587;53.034;18.576;2023-04-24T18:25:55;7.50;;;3.88;;
70927;SDS011;58587;53.034;18.576;2023-04-24T18:28:20;10.67;;;5.50;;
70927;SDS011;58587;53.034;18.576;2023-04-24T18:30:46;5.80;;;3.90;;
70927;SDS011;58587;53.034;18.576;2023-04-24T18:33:11;7.95;;;5.55;;
70927;SDS011;58587;53.034;18.576;2023-04-24T18:35:37;8.00;;;5.10;;
70927;SDS011;58587;53.034;18.576;2023-04-24T18:38:02;5.83;;;4.00;;
70927;SDS011;58587;53.034;18.576;2023-04-24T18:40:27;5.43;;;4.20;;
70927;SDS011;58587;53.034;18.576;2023-04-24T18:42:53;6.27;;;3.93;;
70927;SDS011;58587;53.034;18.576;2023-04-24T18:45:20;3.92;;;2.97;;
70927;SDS011;58587;53.034;18.576;2023-04-24T18:47:45;5.73;;;3.23;;
70927;SDS011;58587;53.034;18.576;2023-04-24T18:50:10;6.57;;;5.13;;
70927;SDS011;58587;53.034;18.576;2023-04-24T18:52:36;9.15;;;6.72;;
70927;SDS011;58587;53.034;18.576;2023-04-24T18:55:02;5.30;;;4.50;;
70927;SDS011;58587;53.034;18.576;2023-04-24T18:57:28;5.15;;;3.58;;
70927;SDS011;58587;53.034;18.576;2023-04-24T18:59:53;5.53;;;3.93;;
70927;SDS011;58587;53.034;18.576;2023-04-24T19:02:19;5.23;;;3.83;;
70927;SDS011;58587;53.034;18.576;2023-04-24T19:04:44;6.00;;;4.70;;
70927;SDS011;58587;53.034;18.576;2023-04-24T19:07:09;5.23;;;4.20;;
70927;SDS011;58587;53.034;18.576;2023-04-24T19:09:35;7.20;;;4.63;;
70927;SDS011;58587;53.034;18.576;2023-04-24T19:12:00;6.03;;;4.20;;
70927;SDS011;58587;53.034;18.576;2023-04-24T19:14:26;6.47;;;5.27;;
70927;SDS011;58587;53.034;18.576;2023-04-24T19:16:51;8.15;;;4.60;;
70927;SDS011;58587;53.034;18.576;2023-04-24T19:19:17;12.17;;;5.93;;
70927;SDS011;58587;53.034;18.576;2023-04-24T19:21:43;9.30;;;6.60;;
70927;SDS011;58587;53.034;18.576;2023-04-24T19:24:08;7.22;;;6.10;;
70927;SDS011;58587;53.034;18.576;2023-04-24T19:26:35;9.18;;;5.50;;
70927;SDS011;58587;53.034;18.576;2023-04-24T19:29:00;6.90;;;4.87;;
70927;SDS011;58587;53.034;18.576;2023-04-24T19:31:25;10.37;;;5.00;;
70927;SDS011;58587;53.034;18.576;2023-04-24T19:33:51;9.70;;;6.57;;
70927;SDS011;58587;53.034;18.576;2023-04-24T19:36:16;7.00;;;4.78;;
70927;SDS011;58587;53.034;18.576;2023-04-24T19:38:45;8.43;;;5.40;;
70927;SDS011;58587;53.034;18.576;2023-04-24T19:41:11;16.58;;;9.77;;
70927;SDS011;58587;53.034;18.576;2023-04-24T19:43:36;11.83;;;7.30;;
70927;SDS011;58587;53.034;18.576;2023-04-24T19:46:02;18.15;;;10.57;;
70927;SDS011;58587;53.034;18.576;2023-04-24T19:48:28;15.00;;;10.57;;
70927;SDS011;58587;53.034;18.576;2023-04-24T19:50:56;20.55;;;11.45;;
70927;SDS011;58587;53.034;18.576;2023-04-24T19:53:22;57.40;;;30.55;;
70927;SDS011;58587;53.034;18.576;2023-04-24T19:55:48;36.90;;;18.60;;
70927;SDS011;58587;53.034;18.576;2023-04-24T19:58:13;21.33;;;11.90;;
70927;SDS011;58587;53.034;18.576;2023-04-24T20:00:38;35.00;;;18.17;;
70927;SDS011;58587;53.034;18.576;2023-04-24T20:03:05;12.43;;;8.70;;
70927;SDS011;58587;53.034;18.576;2023-04-24T20:05:30;11.20;;;7.40;;
70927;SDS011;58587;53.034;18.576;2023-04-24T20:07:56;9.70;;;7.47;;
70927;SDS011;58587;53.034;18.576;2023-04-24T20:10:21;11.75;;;8.30;;
70927;SDS011;58587;53.034;18.576;2023-04-24T20:12:46;15.83;;;10.63;;
70927;SDS011;58587;53.034;18.576;2023-04-24T20:15:12;13.97;;;9.73;;
70927;SDS011;58587;53.034;18.576;2023-04-24T20:17:37;10.83;;;7.60;;
70927;SDS011;58587;53.034;18.576;2023-04-24T20:20:02;13.23;;;8.10;;
70927;SDS011;58587;53.034;18.576;2023-04-24T20:22:28;9.82;;;7.75;;
70927;SDS011;58587;53.034;18.576;2023-04-24T20:24:53;6.47;;;5.73;;
70927;SDS011;58587;53.034;18.576;2023-04-24T20:27:19;7.80;;;5.20;;
70927;SDS011;58587;53.034;18.576;2023-04-24T20:29:45;8.38;;;5.82;;
70927;SDS011;58587;53.034;18.576;2023-04-24T20:32:10;8.53;;;5.80;;
70927;SDS011;58587;53.034;18.576;2023-04-24T20:34:35;8.93;;;6.77;;
70927;SDS011;58587;53.034;18.576;2023-04-24T20:37:01;8.30;;;6.83;;
70927;SDS011;58587;53.034;18.576;2023-04-24T20:39:28;9.93;;;6.50;;
70927;SDS011;58587;53.034;18.576;2023-04-24T20:41:53;7.57;;;6.20;;
70927;SDS011;58587;53.034;18.576;2023-04-24T20:44:18;6.67;;;5.97;;
70927;SDS011;58587;53.034;18.576;2023-04-24T20:46:44;8.73;;;6.10;;
70927;SDS011;58587;53.034;18.576;2023-04-24T20:49:09;9.27;;;6.80;;